Brownsville, TX

11:14 AM CDT on September 01, 2015 (GMT -0500)
Neighborhood | | Change Station
CLOSE
Current Station
Personal Weather Station
Location: Brownsville, TX
Elevation: 26 ft
Nearby Weather Stations

Elev 26 ft 25.99 °N, 97.47 °W | Updated 4 minutes ago

Partly Cloudy
Partly Cloudy
84.4 °F
Feels Like 92 °F
N
10.0
Wind Variable Wind from East
Gusts 12.0 mph

Today
High -- | Low -- °F
--% Chance of Precip.
Yesterday
High -- | Low -- °F
Precip. -- in
7:10 AM 7:49 PM
Waning Gibbous, 88% visible
Pressure 29.99 in
Visibility 10.0 miles
Clouds Scattered Clouds 1900 ft
Mostly Cloudy 2500 ft
Heat Index 92 °F
Dew Point 74 °F
Humidity 71%
Rainfall 0.00 in
Snow Depth Not available.
UV 4 out of 12
Pollen 7.90 out of 12
Air Quality Not available.
Flu Activity Not available.
METAR KBRO 011553Z 07012KT 10SM SCT019 BKN025 29/24 A3000 RMK AO2 SLP156 T02890239
Pressure 29.99 in
Visibility 10.0 miles
Clouds Scattered Clouds 1900 ft
Mostly Cloudy 2500 ft
Heat Index 92 °F
Dew Point 74 °F
Humidity 71%
Rainfall 0.00 in
Snow Depth Not available.
UV 4 out of 12
Pollen 7.90 out of 12
Air Quality Not available.
Flu Activity Not available.
METAR KBRO 011553Z 07012KT 10SM SCT019 BKN025 29/24 A3000 RMK AO2 SLP156 T02890239

10-Day Weather Forecast

×

Almanac

Astronomy

Sep. 01, 2015 Rise Set
Actual Time
Civil Twilight
Nautical Twilight
Astronomical Twilight
Moon
Length of Visible Light
Length of Day
Tomorrow will be .
, % of the Moon is Illuminated

Today's Extremes

State Highs State Lows

Community

WunderPhotos

Upload Photos

1,851,544 photos uploaded!

WunderBlogs® & News

Nearby

Air Quality

  Air Quality AQ Index Pollutant
Not available.

Snow Depth

Station Depth Elevation

Earthquake Activity

City Distance Mag. Time & Date
Minimum magnitude displayed is 2.5.

Coastal Water Temperatures

Place Temperature

Stations

Nearby Weather Stations

Station Location Temp. Windchill Dew Point Humidity Wind Precip. Elev Updated Type